sensor_id;sensor_type;location;lat;lon;timestamp;P1;durP1;ratioP1;P2;durP2;ratioP2
27505;SDS011;14939;43.596;1.320;2023-04-25T00:00:35;11.65;;;7.82;;
27505;SDS011;14939;43.596;1.320;2023-04-25T00:03:00;11.05;;;7.95;;
27505;SDS011;14939;43.596;1.320;2023-04-25T00:05:26;15.82;;;8.45;;
27505;SDS011;14939;43.596;1.320;2023-04-25T00:07:52;14.85;;;8.55;;
27505;SDS011;14939;43.596;1.320;2023-04-25T00:10:19;12.65;;;8.00;;
27505;SDS011;14939;43.596;1.320;2023-04-25T00:12:45;14.55;;;8.45;;
27505;SDS011;14939;43.596;1.320;2023-04-25T00:15:11;12.05;;;7.82;;
27505;SDS011;14939;43.596;1.320;2023-04-25T00:17:37;15.63;;;7.88;;
27505;SDS011;14939;43.596;1.320;2023-04-25T00:20:06;14.18;;;9.13;;
27505;SDS011;14939;43.596;1.320;2023-04-25T00:22:34;11.63;;;8.13;;
27505;SDS011;14939;43.596;1.320;2023-04-25T00:25:02;11.75;;;7.45;;
27505;SDS011;14939;43.596;1.320;2023-04-25T00:27:29;12.70;;;7.40;;
27505;SDS011;14939;43.596;1.320;2023-04-25T00:29:55;16.08;;;6.78;;
27505;SDS011;14939;43.596;1.320;2023-04-25T00:32:20;9.85;;;6.53;;
27505;SDS011;14939;43.596;1.320;2023-04-25T00:34:46;9.40;;;5.90;;
27505;SDS011;14939;43.596;1.320;2023-04-25T00:37:12;9.13;;;6.20;;
27505;SDS011;14939;43.596;1.320;2023-04-25T00:39:38;11.95;;;5.72;;
27505;SDS011;14939;43.596;1.320;2023-04-25T00:42:04;8.75;;;5.80;;
27505;SDS011;14939;43.596;1.320;2023-04-25T00:44:30;9.45;;;4.63;;
27505;SDS011;14939;43.596;1.320;2023-04-25T00:46:57;10.50;;;4.38;;
27505;SDS011;14939;43.596;1.320;2023-04-25T00:49:23;6.93;;;4.28;;
27505;SDS011;14939;43.596;1.320;2023-04-25T00:51:48;6.22;;;3.95;;
27505;SDS011;14939;43.596;1.320;2023-04-25T00:54:15;5.80;;;3.30;;
27505;SDS011;14939;43.596;1.320;2023-04-25T00:56:41;4.47;;;3.33;;
27505;SDS011;14939;43.596;1.320;2023-04-25T00:59:07;5.60;;;3.70;;
27505;SDS011;14939;43.596;1.320;2023-04-25T01:01:35;5.40;;;3.63;;
27505;SDS011;14939;43.596;1.320;2023-04-25T01:04:01;5.65;;;3.45;;
27505;SDS011;14939;43.596;1.320;2023-04-25T01:06:27;4.93;;;3.45;;
27505;SDS011;14939;43.596;1.320;2023-04-25T01:08:53;3.65;;;2.97;;
27505;SDS011;14939;43.596;1.320;2023-04-25T01:11:19;4.97;;;3.03;;
27505;SDS011;14939;43.596;1.320;2023-04-25T01:13:45;3.60;;;2.42;;
27505;SDS011;14939;43.596;1.320;2023-04-25T01:16:11;3.17;;;2.20;;
27505;SDS011;14939;43.596;1.320;2023-04-25T01:18:38;4.03;;;2.10;;
27505;SDS011;14939;43.596;1.320;2023-04-25T01:21:11;2.20;;;1.90;;
27505;SDS011;14939;43.596;1.320;2023-04-25T01:23:40;3.60;;;2.28;;
27505;SDS011;14939;43.596;1.320;2023-04-25T01:26:11;3.22;;;2.25;;
27505;SDS011;14939;43.596;1.320;2023-04-25T01:28:38;3.28;;;2.33;;
27505;SDS011;14939;43.596;1.320;2023-04-25T01:31:08;1.80;;;1.40;;
27505;SDS011;14939;43.596;1.320;2023-04-25T01:33:34;1.52;;;1.20;;
27505;SDS011;14939;43.596;1.320;2023-04-25T01:36:00;1.60;;;1.20;;
27505;SDS011;14939;43.596;1.320;2023-04-25T01:38:26;2.55;;;1.27;;
27505;SDS011;14939;43.596;1.320;2023-04-25T01:40:52;3.80;;;1.50;;
27505;SDS011;14939;43.596;1.320;2023-04-25T01:43:19;2.20;;;1.23;;
27505;SDS011;14939;43.596;1.320;2023-04-25T01:45:45;1.10;;;0.98;;
27505;SDS011;14939;43.596;1.320;2023-04-25T01:48:13;3.90;;;1.27;;
27505;SDS011;14939;43.596;1.320;2023-04-25T01:50:39;3.17;;;1.38;;
27505;SDS011;14939;43.596;1.320;2023-04-25T01:53:06;1.98;;;1.35;;
27505;SDS011;14939;43.596;1.320;2023-04-25T01:55:36;2.53;;;1.40;;
27505;SDS011;14939;43.596;1.320;2023-04-25T01:58:02;1.83;;;1.20;;
27505;SDS011;14939;43.596;1.320;2023-04-25T02:00:28;1.30;;;1.10;;
27505;SDS011;14939;43.596;1.320;2023-04-25T02:02:57;1.42;;;1.00;;
27505;SDS011;14939;43.596;1.320;2023-04-25T02:05:29;1.00;;;0.80;;
27505;SDS011;14939;43.596;1.320;2023-04-25T02:08:00;1.80;;;1.10;;
27505;SDS011;14939;43.596;1.320;2023-04-25T02:10:26;0.73;;;0.70;;
27505;SDS011;14939;43.596;1.320;2023-04-25T02:12:55;1.60;;;0.90;;
27505;SDS011;14939;43.596;1.320;2023-04-25T02:15:22;1.55;;;0.82;;
27505;SDS011;14939;43.596;1.320;2023-04-25T02:17:52;1.10;;;1.00;;
27505;SDS011;14939;43.596;1.320;2023-04-25T02:20:23;1.02;;;0.80;;
27505;SDS011;14939;43.596;1.320;2023-04-25T02:22:50;0.95;;;0.75;;
27505;SDS011;14939;43.596;1.320;2023-04-25T02:25:20;1.90;;;0.70;;
27505;SDS011;14939;43.596;1.320;2023-04-25T02:27:49;1.10;;;0.75;;
27505;SDS011;14939;43.596;1.320;2023-04-25T02:30:16;0.85;;;0.75;;
27505;SDS011;14939;43.596;1.320;2023-04-25T02:32:42;2.50;;;0.70;;
27505;SDS011;14939;43.596;1.320;2023-04-25T02:35:08;2.08;;;0.73;;
27505;SDS011;14939;43.596;1.320;2023-04-25T02:37:36;1.20;;;0.90;;
27505;SDS011;14939;43.596;1.320;2023-04-25T02:40:02;1.42;;;0.55;;
27505;SDS011;14939;43.596;1.320;2023-04-25T02:42:29;3.25;;;0.60;;
27505;SDS011;14939;43.596;1.320;2023-04-25T02:44:55;0.63;;;0.63;;
27505;SDS011;14939;43.596;1.320;2023-04-25T02:47:21;1.02;;;0.50;;
27505;SDS011;14939;43.596;1.320;2023-04-25T02:49:47;0.80;;;0.50;;
27505;SDS011;14939;43.596;1.320;2023-04-25T02:52:16;1.92;;;0.40;;
27505;SDS011;14939;43.596;1.320;2023-04-25T02:54:42;1.13;;;0.50;;
27505;SDS011;14939;43.596;1.320;2023-04-25T02:57:10;1.38;;;0.60;;
27505;SDS011;14939;43.596;1.320;2023-04-25T02:59:36;1.55;;;0.52;;
27505;SDS011;14939;43.596;1.320;2023-04-25T03:02:07;1.10;;;0.60;;
27505;SDS011;14939;43.596;1.320;2023-04-25T03:04:33;1.50;;;0.60;;
27505;SDS011;14939;43.596;1.320;2023-04-25T03:07:11;0.88;;;0.50;;
27505;SDS011;14939;43.596;1.320;2023-04-25T03:09:36;0.52;;;0.50;;
27505;SDS011;14939;43.596;1.320;2023-04-25T03:12:02;0.60;;;0.60;;
27505;SDS011;14939;43.596;1.320;2023-04-25T03:14:28;2.88;;;0.63;;
27505;SDS011;14939;43.596;1.320;2023-04-25T03:16:57;0.73;;;0.63;;
27505;SDS011;14939;43.596;1.320;2023-04-25T03:19:26;4.28;;;0.70;;
27505;SDS011;14939;43.596;1.320;2023-04-25T03:21:52;1.42;;;0.90;;
27505;SDS011;14939;43.596;1.320;2023-04-25T03:24:18;0.90;;;0.85;;
27505;SDS011;14939;43.596;1.320;2023-04-25T03:26:44;2.75;;;1.05;;
27505;SDS011;14939;43.596;1.320;2023-04-25T03:29:10;6.38;;;1.45;;
27505;SDS011;14939;43.596;1.320;2023-04-25T03:31:36;2.15;;;0.80;;
27505;SDS011;14939;43.596;1.320;2023-04-25T03:34:02;1.02;;;0.90;;
27505;SDS011;14939;43.596;1.320;2023-04-25T03:36:28;1.90;;;1.00;;
27505;SDS011;14939;43.596;1.320;2023-04-25T03:38:53;2.35;;;0.90;;
27505;SDS011;14939;43.596;1.320;2023-04-25T03:41:19;1.10;;;1.00;;
27505;SDS011;14939;43.596;1.320;2023-04-25T03:43:45;2.35;;;0.90;;
27505;SDS011;14939;43.596;1.320;2023-04-25T03:46:11;1.00;;;0.90;;
27505;SDS011;14939;43.596;1.320;2023-04-25T03:48:36;1.40;;;0.98;;
27505;SDS011;14939;43.596;1.320;2023-04-25T03:51:02;1.58;;;0.90;;
27505;SDS011;14939;43.596;1.320;2023-04-25T03:53:28;1.13;;;0.90;;
27505;SDS011;14939;43.596;1.320;2023-04-25T03:55:54;1.25;;;1.05;;
27505;SDS011;14939;43.596;1.320;2023-04-25T03:58:19;1.55;;;1.08;;
27505;SDS011;14939;43.596;1.320;2023-04-25T04:00:45;2.13;;;1.05;;
27505;SDS011;14939;43.596;1.320;2023-04-25T04:03:11;1.20;;;1.10;;
27505;SDS011;14939;43.596;1.320;2023-04-25T04:05:36;1.60;;;0.90;;
27505;SDS011;14939;43.596;1.320;2023-04-25T04:08:05;2.42;;;1.27;;
27505;SDS011;14939;43.596;1.320;2023-04-25T04:10:33;1.40;;;1.15;;
27505;SDS011;14939;43.596;1.320;2023-04-25T04:12:59;2.58;;;1.25;;
27505;SDS011;14939;43.596;1.320;2023-04-25T04:15:30;1.80;;;1.55;;
27505;SDS011;14939;43.596;1.320;2023-04-25T04:18:00;2.35;;;1.40;;
27505;SDS011;14939;43.596;1.320;2023-04-25T04:20:29;1.55;;;1.20;;
27505;SDS011;14939;43.596;1.320;2023-04-25T04:23:04;2.45;;;1.30;;
27505;SDS011;14939;43.596;1.320;2023-04-25T04:25:32;3.97;;;1.50;;
27505;SDS011;14939;43.596;1.320;2023-04-25T04:27:59;1.65;;;1.50;;
27505;SDS011;14939;43.596;1.320;2023-04-25T04:30:26;2.20;;;1.60;;
27505;SDS011;14939;43.596;1.320;2023-04-25T04:32:56;4.80;;;1.88;;
27505;SDS011;14939;43.596;1.320;2023-04-25T04:35:22;1.63;;;1.38;;
27505;SDS011;14939;43.596;1.320;2023-04-25T04:37:49;2.75;;;1.60;;
27505;SDS011;14939;43.596;1.320;2023-04-25T04:40:14;2.15;;;1.65;;
27505;SDS011;14939;43.596;1.320;2023-04-25T04:42:44;2.10;;;1.40;;
27505;SDS011;14939;43.596;1.320;2023-04-25T04:45:16;1.42;;;1.33;;
27505;SDS011;14939;43.596;1.320;2023-04-25T04:47:43;1.40;;;1.30;;
27505;SDS011;14939;43.596;1.320;2023-04-25T04:50:12;1.48;;;1.30;;
27505;SDS011;14939;43.596;1.320;2023-04-25T04:52:41;1.85;;;1.30;;
27505;SDS011;14939;43.596;1.320;2023-04-25T04:55:08;2.92;;;1.55;;
27505;SDS011;14939;43.596;1.320;2023-04-25T04:57:34;2.65;;;1.67;;
27505;SDS011;14939;43.596;1.320;2023-04-25T05:00:00;3.13;;;1.92;;
27505;SDS011;14939;43.596;1.320;2023-04-25T05:02:38;3.00;;;1.75;;
27505;SDS011;14939;43.596;1.320;2023-04-25T05:05:07;1.85;;;1.73;;
27505;SDS011;14939;43.596;1.320;2023-04-25T05:07:36;2.85;;;1.73;;
27505;SDS011;14939;43.596;1.320;2023-04-25T05:10:02;3.83;;;1.95;;
27505;SDS011;14939;43.596;1.320;2023-04-25T05:12:28;1.80;;;1.60;;
27505;SDS011;14939;43.596;1.320;2023-04-25T05:14:54;3.40;;;2.10;;
27505;SDS011;14939;43.596;1.320;2023-04-25T05:17:20;2.97;;;2.17;;
27505;SDS011;14939;43.596;1.320;2023-04-25T05:19:46;3.47;;;2.10;;
27505;SDS011;14939;43.596;1.320;2023-04-25T05:22:12;3.42;;;2.50;;
27505;SDS011;14939;43.596;1.320;2023-04-25T05:24:37;5.13;;;2.55;;
27505;SDS011;14939;43.596;1.320;2023-04-25T05:27:04;4.13;;;2.75;;
27505;SDS011;14939;43.596;1.320;2023-04-25T05:29:30;5.60;;;2.80;;
27505;SDS011;14939;43.596;1.320;2023-04-25T05:31:56;9.40;;;3.10;;
27505;SDS011;14939;43.596;1.320;2023-04-25T05:34:22;4.22;;;2.65;;
27505;SDS011;14939;43.596;1.320;2023-04-25T05:36:47;3.88;;;3.10;;
27505;SDS011;14939;43.596;1.320;2023-04-25T05:39:15;5.05;;;2.78;;
27505;SDS011;14939;43.596;1.320;2023-04-25T05:41:42;4.47;;;2.50;;
27505;SDS011;14939;43.596;1.320;2023-04-25T05:44:08;5.13;;;2.30;;
27505;SDS011;14939;43.596;1.320;2023-04-25T05:46:34;2.75;;;2.20;;
27505;SDS011;14939;43.596;1.320;2023-04-25T05:48:59;2.33;;;2.00;;
27505;SDS011;14939;43.596;1.320;2023-04-25T05:51:25;2.33;;;2.10;;
27505;SDS011;14939;43.596;1.320;2023-04-25T05:53:54;12.25;;;2.72;;
27505;SDS011;14939;43.596;1.320;2023-04-25T05:56:20;5.38;;;2.53;;
27505;SDS011;14939;43.596;1.320;2023-04-25T05:58:45;3.10;;;2.60;;
27505;SDS011;14939;43.596;1.320;2023-04-25T06:01:11;4.05;;;2.60;;
27505;SDS011;14939;43.596;1.320;2023-04-25T06:03:37;2.53;;;2.33;;
27505;SDS011;14939;43.596;1.320;2023-04-25T06:06:03;3.88;;;2.40;;
27505;SDS011;14939;43.596;1.320;2023-04-25T06:08:29;2.63;;;2.20;;
27505;SDS011;14939;43.596;1.320;2023-04-25T06:10:55;2.28;;;2.03;;
27505;SDS011;14939;43.596;1.320;2023-04-25T06:13:20;2.85;;;2.10;;
27505;SDS011;14939;43.596;1.320;2023-04-25T06:15:46;4.43;;;2.13;;
27505;SDS011;14939;43.596;1.320;2023-04-25T06:18:12;3.58;;;1.50;;
27505;SDS011;14939;43.596;1.320;2023-04-25T06:20:37;2.20;;;1.65;;
27505;SDS011;14939;43.596;1.320;2023-04-25T06:23:03;2.67;;;1.30;;
27505;SDS011;14939;43.596;1.320;2023-04-25T06:25:29;1.40;;;1.30;;
27505;SDS011;14939;43.596;1.320;2023-04-25T06:27:55;1.40;;;1.30;;
27505;SDS011;14939;43.596;1.320;2023-04-25T06:30:21;2.08;;;1.40;;
27505;SDS011;14939;43.596;1.320;2023-04-25T06:32:50;1.27;;;1.17;;
27505;SDS011;14939;43.596;1.320;2023-04-25T06:35:19;2.47;;;1.40;;
27505;SDS011;14939;43.596;1.320;2023-04-25T06:37:45;1.83;;;1.17;;
27505;SDS011;14939;43.596;1.320;2023-04-25T06:40:10;2.65;;;1.40;;
27505;SDS011;14939;43.596;1.320;2023-04-25T06:42:36;2.00;;;1.40;;
27505;SDS011;14939;43.596;1.320;2023-04-25T06:45:02;1.45;;;1.35;;
27505;SDS011;14939;43.596;1.320;2023-04-25T06:47:28;2.40;;;1.60;;
27505;SDS011;14939;43.596;1.320;2023-04-25T06:49:54;1.90;;;1.60;;
27505;SDS011;14939;43.596;1.320;2023-04-25T06:52:20;1.98;;;1.48;;
27505;SDS011;14939;43.596;1.320;2023-04-25T06:54:46;1.67;;;1.58;;
27505;SDS011;14939;43.596;1.320;2023-04-25T06:57:12;1.50;;;1.40;;
27505;SDS011;14939;43.596;1.320;2023-04-25T06:59:38;2.17;;;1.50;;
27505;SDS011;14939;43.596;1.320;2023-04-25T07:02:04;1.88;;;1.40;;
27505;SDS011;14939;43.596;1.320;2023-04-25T07:04:31;1.67;;;1.20;;
27505;SDS011;14939;43.596;1.320;2023-04-25T07:06:56;2.20;;;1.50;;
27505;SDS011;14939;43.596;1.320;2023-04-25T07:09:22;2.63;;;1.40;;
27505;SDS011;14939;43.596;1.320;2023-04-25T07:11:48;1.83;;;1.60;;
27505;SDS011;14939;43.596;1.320;2023-04-25T07:14:14;2.95;;;1.70;;
27505;SDS011;14939;43.596;1.320;2023-04-25T07:16:40;2.05;;;1.70;;
27505;SDS011;14939;43.596;1.320;2023-04-25T07:19:06;3.65;;;1.67;;
27505;SDS011;14939;43.596;1.320;2023-04-25T07:21:31;2.92;;;1.65;;
27505;SDS011;14939;43.596;1.320;2023-04-25T07:23:57;2.90;;;1.90;;
27505;SDS011;14939;43.596;1.320;2023-04-25T07:26:23;4.20;;;1.13;;
27505;SDS011;14939;43.596;1.320;2023-04-25T07:28:49;0.70;;;0.47;;
27505;SDS011;14939;43.596;1.320;2023-04-25T07:31:16;1.33;;;0.35;;
27505;SDS011;14939;43.596;1.320;2023-04-25T07:33:45;0.32;;;0.30;;
27505;SDS011;14939;43.596;1.320;2023-04-25T07:36:11;1.13;;;0.45;;
27505;SDS011;14939;43.596;1.320;2023-04-25T07:38:38;0.38;;;0.32;;
27505;SDS011;14939;43.596;1.320;2023-04-25T07:41:04;1.33;;;0.50;;
27505;SDS011;14939;43.596;1.320;2023-04-25T07:43:30;0.90;;;0.60;;
27505;SDS011;14939;43.596;1.320;2023-04-25T07:45:55;1.52;;;0.80;;
27505;SDS011;14939;43.596;1.320;2023-04-25T07:48:24;1.25;;;0.60;;
27505;SDS011;14939;43.596;1.320;2023-04-25T07:50:50;2.15;;;0.60;;
27505;SDS011;14939;43.596;1.320;2023-04-25T07:53:16;0.80;;;0.80;;
27505;SDS011;14939;43.596;1.320;2023-04-25T07:55:43;0.80;;;0.80;;
27505;SDS011;14939;43.596;1.320;2023-04-25T07:58:09;2.05;;;1.08;;
27505;SDS011;14939;43.596;1.320;2023-04-25T08:00:36;1.50;;;0.60;;
27505;SDS011;14939;43.596;1.320;2023-04-25T08:03:02;1.05;;;0.80;;
27505;SDS011;14939;43.596;1.320;2023-04-25T08:05:28;1.17;;;0.68;;
27505;SDS011;14939;43.596;1.320;2023-04-25T08:07:54;1.20;;;0.80;;
27505;SDS011;14939;43.596;1.320;2023-04-25T08:10:20;2.15;;;0.70;;
27505;SDS011;14939;43.596;1.320;2023-04-25T08:12:47;1.35;;;0.60;;
27505;SDS011;14939;43.596;1.320;2023-04-25T08:15:13;1.67;;;0.85;;
27505;SDS011;14939;43.596;1.320;2023-04-25T08:17:39;0.98;;;0.88;;
27505;SDS011;14939;43.596;1.320;2023-04-25T08:20:05;1.20;;;1.10;;
27505;SDS011;14939;43.596;1.320;2023-04-25T08:22:31;1.77;;;1.02;;
27505;SDS011;14939;43.596;1.320;2023-04-25T08:24:57;4.05;;;0.98;;
27505;SDS011;14939;43.596;1.320;2023-04-25T08:27:23;1.25;;;1.15;;
27505;SDS011;14939;43.596;1.320;2023-04-25T08:29:49;1.48;;;1.00;;
27505;SDS011;14939;43.596;1.320;2023-04-25T08:32:15;0.75;;;0.60;;
27505;SDS011;14939;43.596;1.320;2023-04-25T08:34:41;0.80;;;0.80;;
27505;SDS011;14939;43.596;1.320;2023-04-25T08:37:09;2.08;;;0.82;;
27505;SDS011;14939;43.596;1.320;2023-04-25T08:39:35;0.70;;;0.70;;
27505;SDS011;14939;43.596;1.320;2023-04-25T08:42:10;1.40;;;0.70;;
27505;SDS011;14939;43.596;1.320;2023-04-25T08:44:37;1.48;;;0.70;;
27505;SDS011;14939;43.596;1.320;2023-04-25T08:47:03;1.20;;;0.60;;
27505;SDS011;14939;43.596;1.320;2023-04-25T08:49:33;1.85;;;0.70;;
27505;SDS011;14939;43.596;1.320;2023-04-25T08:52:01;1.20;;;0.75;;
27505;SDS011;14939;43.596;1.320;2023-04-25T08:54:28;1.17;;;0.80;;
27505;SDS011;14939;43.596;1.320;2023-04-25T08:56:56;1.35;;;0.95;;
27505;SDS011;14939;43.596;1.320;2023-04-25T08:59:23;0.95;;;0.90;;
27505;SDS011;14939;43.596;1.320;2023-04-25T09:01:49;1.13;;;0.90;;
27505;SDS011;14939;43.596;1.320;2023-04-25T09:04:16;1.30;;;1.20;;
27505;SDS011;14939;43.596;1.320;2023-04-25T09:06:44;3.90;;;1.40;;
27505;SDS011;14939;43.596;1.320;2023-04-25T09:09:10;1.08;;;0.90;;
27505;SDS011;14939;43.596;1.320;2023-04-25T09:11:37;1.20;;;0.80;;
27505;SDS011;14939;43.596;1.320;2023-04-25T09:14:16;2.45;;;1.00;;
27505;SDS011;14939;43.596;1.320;2023-04-25T09:19:28;2.20;;;0.90;;
27505;SDS011;14939;43.596;1.320;2023-04-25T09:21:56;1.35;;;0.93;;
27505;SDS011;14939;43.596;1.320;2023-04-25T09:24:42;1.85;;;1.10;;
27505;SDS011;14939;43.596;1.320;2023-04-25T09:27:11;1.13;;;0.90;;
27505;SDS011;14939;43.596;1.320;2023-04-25T09:29:39;1.10;;;0.90;;
27505;SDS011;14939;43.596;1.320;2023-04-25T09:32:14;1.38;;;0.80;;
27505;SDS011;14939;43.596;1.320;2023-04-25T09:34:51;1.40;;;1.10;;
27505;SDS011;14939;43.596;1.320;2023-04-25T09:37:18;2.58;;;1.08;;
27505;SDS011;14939;43.596;1.320;2023-04-25T09:39:46;1.48;;;0.98;;
27505;SDS011;14939;43.596;1.320;2023-04-25T09:42:25;2.85;;;0.80;;
27505;SDS011;14939;43.596;1.320;2023-04-25T09:44:54;1.23;;;1.00;;
27505;SDS011;14939;43.596;1.320;2023-04-25T09:47:22;1.13;;;1.00;;
27505;SDS011;14939;43.596;1.320;2023-04-25T09:49:49;1.88;;;1.00;;
27505;SDS011;14939;43.596;1.320;2023-04-25T09:52:24;1.35;;;1.20;;
27505;SDS011;14939;43.596;1.320;2023-04-25T09:54:51;1.38;;;1.02;;
27505;SDS011;14939;43.596;1.320;2023-04-25T09:57:18;1.60;;;0.90;;
27505;SDS011;14939;43.596;1.320;2023-04-25T09:59:48;1.52;;;0.88;;
27505;SDS011;14939;43.596;1.320;2023-04-25T10:02:15;1.70;;;0.90;;
27505;SDS011;14939;43.596;1.320;2023-04-25T10:04:44;1.63;;;1.00;;
27505;SDS011;14939;43.596;1.320;2023-04-25T10:07:13;1.63;;;1.17;;
27505;SDS011;14939;43.596;1.320;2023-04-25T10:09:40;1.17;;;1.05;;
27505;SDS011;14939;43.596;1.320;2023-04-25T10:12:07;1.17;;;1.08;;
27505;SDS011;14939;43.596;1.320;2023-04-25T10:14:34;1.83;;;1.20;;
27505;SDS011;14939;43.596;1.320;2023-04-25T10:17:00;2.05;;;1.20;;
27505;SDS011;14939;43.596;1.320;2023-04-25T10:19:27;1.40;;;1.10;;
27505;SDS011;14939;43.596;1.320;2023-04-25T10:24:31;0.60;;;0.40;;
27505;SDS011;14939;43.596;1.320;2023-04-25T10:26:57;1.50;;;0.50;;
27505;SDS011;14939;43.596;1.320;2023-04-25T10:29:24;0.82;;;0.50;;
27505;SDS011;14939;43.596;1.320;2023-04-25T10:31:50;0.82;;;0.60;;
27505;SDS011;14939;43.596;1.320;2023-04-25T10:34:16;1.15;;;0.50;;
27505;SDS011;14939;43.596;1.320;2023-04-25T10:36:42;0.75;;;0.50;;
27505;SDS011;14939;43.596;1.320;2023-04-25T10:39:13;0.63;;;0.40;;
27505;SDS011;14939;43.596;1.320;2023-04-25T10:41:56;1.10;;;0.68;;
27505;SDS011;14939;43.596;1.320;2023-04-25T10:44:26;0.75;;;0.30;;
27505;SDS011;14939;43.596;1.320;2023-04-25T10:47:01;0.75;;;0.60;;
27505;SDS011;14939;43.596;1.320;2023-04-25T10:49:35;0.90;;;0.60;;
27505;SDS011;14939;43.596;1.320;2023-04-25T10:54:56;1.75;;;0.90;;
27505;SDS011;14939;43.596;1.320;2023-04-25T10:57:39;1.40;;;0.70;;
27505;SDS011;14939;43.596;1.320;2023-04-25T11:00:19;1.00;;;0.80;;
27505;SDS011;14939;43.596;1.320;2023-04-25T11:02:58;1.95;;;0.80;;
27505;SDS011;14939;43.596;1.320;2023-04-25T11:05:34;1.17;;;0.85;;
27505;SDS011;14939;43.596;1.320;2023-04-25T11:08:01;1.95;;;1.30;;
27505;SDS011;14939;43.596;1.320;2023-04-25T11:10:32;2.10;;;0.90;;
27505;SDS011;14939;43.596;1.320;2023-04-25T11:13:01;1.02;;;0.82;;
27505;SDS011;14939;43.596;1.320;2023-04-25T11:15:28;1.83;;;0.90;;
27505;SDS011;14939;43.596;1.320;2023-04-25T11:18:03;1.92;;;0.90;;
27505;SDS011;14939;43.596;1.320;2023-04-25T11:20:29;1.60;;;0.88;;
27505;SDS011;14939;43.596;1.320;2023-04-25T11:22:57;2.95;;;0.70;;
27505;SDS011;14939;43.596;1.320;2023-04-25T11:25:44;0.80;;;0.70;;
27505;SDS011;14939;43.596;1.320;2023-04-25T11:28:10;2.97;;;1.23;;
27505;SDS011;14939;43.596;1.320;2023-04-25T11:30:36;1.15;;;0.80;;
27505;SDS011;14939;43.596;1.320;2023-04-25T11:33:02;1.00;;;0.90;;
27505;SDS011;14939;43.596;1.320;2023-04-25T11:35:28;1.80;;;1.00;;
27505;SDS011;14939;43.596;1.320;2023-04-25T11:37:54;1.02;;;1.00;;
27505;SDS011;14939;43.596;1.320;2023-04-25T11:40:20;1.60;;;0.98;;
27505;SDS011;14939;43.596;1.320;2023-04-25T11:42:46;1.30;;;1.00;;
27505;SDS011;14939;43.596;1.320;2023-04-25T11:45:12;1.20;;;1.10;;
27505;SDS011;14939;43.596;1.320;2023-04-25T11:47:39;1.35;;;0.80;;
27505;SDS011;14939;43.596;1.320;2023-04-25T11:50:06;0.80;;;0.80;;
27505;SDS011;14939;43.596;1.320;2023-04-25T11:52:42;0.88;;;0.80;;
27505;SDS011;14939;43.596;1.320;2023-04-25T11:55:13;1.17;;;1.08;;
27505;SDS011;14939;43.596;1.320;2023-04-25T11:57:40;2.97;;;2.67;;
27505;SDS011;14939;43.596;1.320;2023-04-25T12:00:08;3.78;;;2.70;;
27505;SDS011;14939;43.596;1.320;2023-04-25T12:02:50;1.65;;;1.17;;
27505;SDS011;14939;43.596;1.320;2023-04-25T12:05:18;1.70;;;1.02;;
27505;SDS011;14939;43.596;1.320;2023-04-25T12:07:45;3.58;;;2.75;;
27505;SDS011;14939;43.596;1.320;2023-04-25T12:10:12;2.15;;;1.73;;
27505;SDS011;14939;43.596;1.320;2023-04-25T12:12:42;1.27;;;1.10;;
27505;SDS011;14939;43.596;1.320;2023-04-25T12:15:13;1.10;;;1.00;;
27505;SDS011;14939;43.596;1.320;2023-04-25T12:17:44;1.30;;;1.20;;
27505;SDS011;14939;43.596;1.320;2023-04-25T12:20:21;2.95;;;2.45;;
27505;SDS011;14939;43.596;1.320;2023-04-25T12:22:50;1.50;;;1.17;;
27505;SDS011;14939;43.596;1.320;2023-04-25T12:28:10;1.70;;;1.50;;
27505;SDS011;14939;43.596;1.320;2023-04-25T12:33:28;2.17;;;1.73;;
27505;SDS011;14939;43.596;1.320;2023-04-25T12:35:55;3.55;;;2.53;;
27505;SDS011;14939;43.596;1.320;2023-04-25T12:38:23;1.77;;;1.42;;
27505;SDS011;14939;43.596;1.320;2023-04-25T12:40:59;1.60;;;1.50;;
27505;SDS011;14939;43.596;1.320;2023-04-25T12:43:25;2.22;;;1.85;;
27505;SDS011;14939;43.596;1.320;2023-04-25T12:45:54;11.38;;;5.50;;
27505;SDS011;14939;43.596;1.320;2023-04-25T12:48:21;2.03;;;1.83;;
27505;SDS011;14939;43.596;1.320;2023-04-25T12:50:47;1.50;;;1.40;;
27505;SDS011;14939;43.596;1.320;2023-04-25T12:53:17;1.75;;;1.63;;
27505;SDS011;14939;43.596;1.320;2023-04-25T12:55:45;2.78;;;2.05;;
27505;SDS011;14939;43.596;1.320;2023-04-25T12:58:12;3.95;;;2.63;;
27505;SDS011;14939;43.596;1.320;2023-04-25T13:00:38;2.25;;;1.55;;
27505;SDS011;14939;43.596;1.320;2023-04-25T13:03:04;2.85;;;2.38;;
27505;SDS011;14939;43.596;1.320;2023-04-25T13:05:30;2.53;;;1.30;;
27505;SDS011;14939;43.596;1.320;2023-04-25T13:07:56;5.32;;;1.20;;
27505;SDS011;14939;43.596;1.320;2023-04-25T13:10:22;4.72;;;1.70;;
27505;SDS011;14939;43.596;1.320;2023-04-25T13:12:48;8.43;;;2.90;;
27505;SDS011;14939;43.596;1.320;2023-04-25T13:15:13;8.13;;;3.00;;
27505;SDS011;14939;43.596;1.320;2023-04-25T13:17:40;6.00;;;2.35;;
27505;SDS011;14939;43.596;1.320;2023-04-25T13:20:07;10.73;;;3.50;;
27505;SDS011;14939;43.596;1.320;2023-04-25T13:22:37;2.33;;;1.48;;
27505;SDS011;14939;43.596;1.320;2023-04-25T13:25:04;4.68;;;3.10;;
27505;SDS011;14939;43.596;1.320;2023-04-25T13:27:31;2.97;;;1.90;;
27505;SDS011;14939;43.596;1.320;2023-04-25T13:29:59;2.83;;;1.70;;
27505;SDS011;14939;43.596;1.320;2023-04-25T13:32:26;1.88;;;1.42;;
27505;SDS011;14939;43.596;1.320;2023-04-25T13:34:52;3.33;;;1.35;;
27505;SDS011;14939;43.596;1.320;2023-04-25T13:37:18;4.18;;;1.80;;
27505;SDS011;14939;43.596;1.320;2023-04-25T13:39:44;2.20;;;1.88;;
27505;SDS011;14939;43.596;1.320;2023-04-25T13:42:09;2.47;;;1.73;;
27505;SDS011;14939;43.596;1.320;2023-04-25T13:44:36;2.03;;;1.10;;
27505;SDS011;14939;43.596;1.320;2023-04-25T13:47:02;2.80;;;1.30;;
27505;SDS011;14939;43.596;1.320;2023-04-25T13:49:28;2.83;;;1.40;;
27505;SDS011;14939;43.596;1.320;2023-04-25T13:51:54;2.70;;;1.75;;
27505;SDS011;14939;43.596;1.320;2023-04-25T13:54:20;4.63;;;1.73;;
27505;SDS011;14939;43.596;1.320;2023-04-25T13:56:45;3.05;;;1.88;;
27505;SDS011;14939;43.596;1.320;2023-04-25T13:59:11;5.25;;;1.70;;
27505;SDS011;14939;43.596;1.320;2023-04-25T14:01:37;2.50;;;1.50;;
27505;SDS011;14939;43.596;1.320;2023-04-25T14:04:03;2.60;;;1.90;;
27505;SDS011;14939;43.596;1.320;2023-04-25T14:06:29;2.10;;;1.90;;
27505;SDS011;14939;43.596;1.320;2023-04-25T14:08:56;3.10;;;1.95;;
27505;SDS011;14939;43.596;1.320;2023-04-25T14:11:22;2.22;;;1.30;;
27505;SDS011;14939;43.596;1.320;2023-04-25T14:13:47;3.15;;;1.80;;
27505;SDS011;14939;43.596;1.320;2023-04-25T14:16:14;1.92;;;1.58;;
27505;SDS011;14939;43.596;1.320;2023-04-25T14:18:40;1.67;;;0.90;;
27505;SDS011;14939;43.596;1.320;2023-04-25T14:21:06;1.35;;;1.00;;
27505;SDS011;14939;43.596;1.320;2023-04-25T14:23:33;1.20;;;1.10;;
27505;SDS011;14939;43.596;1.320;2023-04-25T14:25:58;0.82;;;0.82;;
27505;SDS011;14939;43.596;1.320;2023-04-25T14:28:24;2.40;;;1.10;;
27505;SDS011;14939;43.596;1.320;2023-04-25T14:30:50;1.20;;;1.10;;
27505;SDS011;14939;43.596;1.320;2023-04-25T14:33:15;1.67;;;1.58;;
27505;SDS011;14939;43.596;1.320;2023-04-25T14:35:41;1.75;;;1.27;;
27505;SDS011;14939;43.596;1.320;2023-04-25T14:38:07;2.05;;;1.23;;
27505;SDS011;14939;43.596;1.320;2023-04-25T14:40:33;1.50;;;1.30;;
27505;SDS011;14939;43.596;1.320;2023-04-25T14:42:58;1.10;;;0.90;;
27505;SDS011;14939;43.596;1.320;2023-04-25T14:45:24;1.25;;;0.88;;
27505;SDS011;14939;43.596;1.320;2023-04-25T14:47:50;2.28;;;1.10;;
27505;SDS011;14939;43.596;1.320;2023-04-25T14:50:16;2.03;;;1.33;;
27505;SDS011;14939;43.596;1.320;2023-04-25T14:52:42;1.50;;;1.30;;
27505;SDS011;14939;43.596;1.320;2023-04-25T14:55:09;3.08;;;1.60;;
27505;SDS011;14939;43.596;1.320;2023-04-25T14:57:35;1.83;;;1.42;;
27505;SDS011;14939;43.596;1.320;2023-04-25T15:00:00;2.05;;;1.30;;
27505;SDS011;14939;43.596;1.320;2023-04-25T15:02:27;2.10;;;1.17;;